sensor_id;sensor_type;location;lat;lon;timestamp;temperature;humidity
22503;DHT22;11418;48.118;9.992;2024-03-23T00:54:26;8.30;99.90
22503;DHT22;11418;48.118;9.992;2024-03-23T00:58:27;8.70;99.90
22503;DHT22;11418;48.118;9.992;2024-03-23T01:02:27;8.90;99.90
22503;DHT22;11418;48.118;9.992;2024-03-23T01:06:28;9.20;99.90
22503;DHT22;11418;48.118;9.992;2024-03-23T01:10:29;9.30;99.90
22503;DHT22;11418;48.118;9.992;2024-03-23T01:14:29;9.30;99.90
22503;DHT22;11418;48.118;9.992;2024-03-23T01:18:30;9.20;99.90
22503;DHT22;11418;48.118;9.992;2024-03-23T01:22:30;9.00;99.90
22503;DHT22;11418;48.118;9.992;2024-03-23T01:26:33;9.10;99.90
22503;DHT22;11418;48.118;9.992;2024-03-23T01:30:34;9.00;99.90
22503;DHT22;11418;48.118;9.992;2024-03-23T01:34:35;9.00;99.90
22503;DHT22;11418;48.118;9.992;2024-03-23T01:38:35;9.00;99.90
22503;DHT22;11418;48.118;9.992;2024-03-23T01:42:36;9.10;99.90
22503;DHT22;11418;48.118;9.992;2024-03-23T01:46:38;9.10;99.90
22503;DHT22;11418;48.118;9.992;2024-03-23T01:50:39;9.20;99.90
22503;DHT22;11418;48.118;9.992;2024-03-23T01:54:40;9.30;99.90
22503;DHT22;11418;48.118;9.992;2024-03-23T01:58:41;9.20;99.90
22503;DHT22;11418;48.118;9.992;2024-03-23T02:02:45;9.10;99.90
22503;DHT22;11418;48.118;9.992;2024-03-23T02:06:46;9.00;99.90
22503;DHT22;11418;48.118;9.992;2024-03-23T02:10:50;8.90;99.90
22503;DHT22;11418;48.118;9.992;2024-03-23T02:14:50;8.90;99.90
22503;DHT22;11418;48.118;9.992;2024-03-23T02:18:51;8.80;99.90
22503;DHT22;11418;48.118;9.992;2024-03-23T02:22:53;8.90;99.90
22503;DHT22;11418;48.118;9.992;2024-03-23T02:26:54;9.00;99.90
22503;DHT22;11418;48.118;9.992;2024-03-23T02:30:54;9.10;99.90
22503;DHT22;11418;48.118;9.992;2024-03-23T02:34:55;9.10;99.90
22503;DHT22;11418;48.118;9.992;2024-03-23T02:38:55;8.80;99.90
22503;DHT22;11418;48.118;9.992;2024-03-23T02:42:56;8.70;99.90
22503;DHT22;11418;48.118;9.992;2024-03-23T02:46:56;8.70;99.90
22503;DHT22;11418;48.118;9.992;2024-03-23T02:50:57;8.60;99.90
22503;DHT22;11418;48.118;9.992;2024-03-23T02:54:58;8.60;99.90
22503;DHT22;11418;48.118;9.992;2024-03-23T02:58:58;8.60;99.90
22503;DHT22;11418;48.118;9.992;2024-03-23T03:02:59;8.70;99.90
22503;DHT22;11418;48.118;9.992;2024-03-23T03:07:00;8.90;99.90
22503;DHT22;11418;48.118;9.992;2024-03-23T03:11:00;9.20;99.90
22503;DHT22;11418;48.118;9.992;2024-03-23T03:15:01;9.50;99.90
22503;DHT22;11418;48.118;9.992;2024-03-23T03:19:01;9.70;99.90
22503;DHT22;11418;48.118;9.992;2024-03-23T03:23:02;9.90;99.90
22503;DHT22;11418;48.118;9.992;2024-03-23T03:27:02;10.00;99.90
22503;DHT22;11418;48.118;9.992;2024-03-23T03:31:04;10.20;99.90
22503;DHT22;11418;48.118;9.992;2024-03-23T03:35:04;10.40;99.90
22503;DHT22;11418;48.118;9.992;2024-03-23T03:39:05;10.50;99.90
22503;DHT22;11418;48.118;9.992;2024-03-23T03:43:06;10.50;99.90
22503;DHT22;11418;48.118;9.992;2024-03-23T03:47:07;10.40;99.90
22503;DHT22;11418;48.118;9.992;2024-03-23T03:51:07;10.50;99.90
22503;DHT22;11418;48.118;9.992;2024-03-23T03:55:13;10.40;99.90
22503;DHT22;11418;48.118;9.992;2024-03-23T03:59:14;10.20;99.90
22503;DHT22;11418;48.118;9.992;2024-03-23T04:03:15;10.40;99.90
22503;DHT22;11418;48.118;9.992;2024-03-23T04:07:16;10.40;99.90
22503;DHT22;11418;48.118;9.992;2024-03-23T04:11:17;10.30;99.90
22503;DHT22;11418;48.118;9.992;2024-03-23T04:15:18;10.50;99.90
22503;DHT22;11418;48.118;9.992;2024-03-23T04:19:18;10.50;99.90
22503;DHT22;11418;48.118;9.992;2024-03-23T04:23:20;10.50;99.90
22503;DHT22;11418;48.118;9.992;2024-03-23T04:27:21;10.30;99.90
22503;DHT22;11418;48.118;9.992;2024-03-23T04:31:22;10.20;99.90
22503;DHT22;11418;48.118;9.992;2024-03-23T04:35:22;10.30;99.90
22503;DHT22;11418;48.118;9.992;2024-03-23T04:39:25;10.30;99.90
22503;DHT22;11418;48.118;9.992;2024-03-23T04:43:26;10.30;99.90
22503;DHT22;11418;48.118;9.992;2024-03-23T04:47:27;10.30;99.90
22503;DHT22;11418;48.118;9.992;2024-03-23T04:51:27;10.20;99.90
22503;DHT22;11418;48.118;9.992;2024-03-23T04:55:35;10.30;99.90
22503;DHT22;11418;48.118;9.992;2024-03-23T04:59:35;10.40;99.90
22503;DHT22;11418;48.118;9.992;2024-03-23T05:03:36;10.60;99.90
22503;DHT22;11418;48.118;9.992;2024-03-23T05:07:37;10.50;99.90
22503;DHT22;11418;48.118;9.992;2024-03-23T05:11:38;10.50;99.90
22503;DHT22;11418;48.118;9.992;2024-03-23T05:15:39;10.60;99.90
22503;DHT22;11418;48.118;9.992;2024-03-23T05:19:39;10.60;99.90
22503;DHT22;11418;48.118;9.992;2024-03-23T05:23:40;10.50;99.90
22503;DHT22;11418;48.118;9.992;2024-03-23T05:27:40;10.50;99.90
22503;DHT22;11418;48.118;9.992;2024-03-23T05:31:41;10.60;99.90
22503;DHT22;11418;48.118;9.992;2024-03-23T05:35:42;10.50;99.90
22503;DHT22;11418;48.118;9.992;2024-03-23T05:39:42;10.50;99.90
22503;DHT22;11418;48.118;9.992;2024-03-23T05:43:43;10.80;99.90
22503;DHT22;11418;48.118;9.992;2024-03-23T05:47:44;11.00;99.90
22503;DHT22;11418;48.118;9.992;2024-03-23T05:51:45;11.30;99.90
22503;DHT22;11418;48.118;9.992;2024-03-23T05:55:45;11.40;99.90
22503;DHT22;11418;48.118;9.992;2024-03-23T05:59:48;11.40;99.90
22503;DHT22;11418;48.118;9.992;2024-03-23T06:03:48;11.40;99.90
22503;DHT22;11418;48.118;9.992;2024-03-23T06:07:49;11.20;99.90
22503;DHT22;11418;48.118;9.992;2024-03-23T06:11:50;11.10;99.90
22503;DHT22;11418;48.118;9.992;2024-03-23T06:15:50;11.20;99.90
22503;DHT22;11418;48.118;9.992;2024-03-23T06:19:51;10.80;99.90
22503;DHT22;11418;48.118;9.992;2024-03-23T06:23:52;10.40;99.90
22503;DHT22;11418;48.118;9.992;2024-03-23T06:27:53;10.10;99.90
22503;DHT22;11418;48.118;9.992;2024-03-23T06:31:54;10.00;99.90
22503;DHT22;11418;48.118;9.992;2024-03-23T06:35:55;10.00;99.90
22503;DHT22;11418;48.118;9.992;2024-03-23T06:39:55;9.90;99.90
22503;DHT22;11418;48.118;9.992;2024-03-23T06:43:56;9.80;99.90
22503;DHT22;11418;48.118;9.992;2024-03-23T06:47:56;9.80;99.90
22503;DHT22;11418;48.118;9.992;2024-03-23T06:51:58;9.80;99.90
22503;DHT22;11418;48.118;9.992;2024-03-23T06:55:58;9.70;99.90
22503;DHT22;11418;48.118;9.992;2024-03-23T06:59:59;9.70;99.90
22503;DHT22;11418;48.118;9.992;2024-03-23T07:04:00;9.70;99.90
22503;DHT22;11418;48.118;9.992;2024-03-23T07:08:00;9.70;99.90
22503;DHT22;11418;48.118;9.992;2024-03-23T07:12:01;9.80;99.90
22503;DHT22;11418;48.118;9.992;2024-03-23T07:16:02;9.50;99.90
22503;DHT22;11418;48.118;9.992;2024-03-23T07:20:02;9.30;99.90
22503;DHT22;11418;48.118;9.992;2024-03-23T07:24:04;9.10;99.90
22503;DHT22;11418;48.118;9.992;2024-03-23T07:28:05;9.00;99.90
22503;DHT22;11418;48.118;9.992;2024-03-23T07:32:05;8.90;99.90
22503;DHT22;11418;48.118;9.992;2024-03-23T07:36:06;9.00;99.90
22503;DHT22;11418;48.118;9.992;2024-03-23T07:40:07;8.90;99.90
22503;DHT22;11418;48.118;9.992;2024-03-23T07:44:08;8.80;99.90
22503;DHT22;11418;48.118;9.992;2024-03-23T07:48:08;8.80;99.90
22503;DHT22;11418;48.118;9.992;2024-03-23T07:52:09;8.90;99.90
22503;DHT22;11418;48.118;9.992;2024-03-23T07:56:10;9.00;99.90
22503;DHT22;11418;48.118;9.992;2024-03-23T08:00:11;9.30;99.90
22503;DHT22;11418;48.118;9.992;2024-03-23T08:04:13;9.30;99.90
22503;DHT22;11418;48.118;9.992;2024-03-23T08:08:14;9.30;99.90
22503;DHT22;11418;48.118;9.992;2024-03-23T08:12:14;9.30;99.90
22503;DHT22;11418;48.118;9.992;2024-03-23T08:16:15;9.30;99.90
22503;DHT22;11418;48.118;9.992;2024-03-23T08:20:15;9.20;99.90
22503;DHT22;11418;48.118;9.992;2024-03-23T08:24:16;8.60;99.90
22503;DHT22;11418;48.118;9.992;2024-03-23T08:28:17;8.10;99.90
22503;DHT22;11418;48.118;9.992;2024-03-23T08:32:17;7.90;99.90
22503;DHT22;11418;48.118;9.992;2024-03-23T08:36:18;7.90;99.90
22503;DHT22;11418;48.118;9.992;2024-03-23T08:40:18;8.10;99.90
22503;DHT22;11418;48.118;9.992;2024-03-23T08:44:19;8.10;99.90
22503;DHT22;11418;48.118;9.992;2024-03-23T08:48:20;8.10;99.90
22503;DHT22;11418;48.118;9.992;2024-03-23T08:52:20;8.10;99.90
22503;DHT22;11418;48.118;9.992;2024-03-23T08:56:23;8.10;99.90
22503;DHT22;11418;48.118;9.992;2024-03-23T09:00:24;8.10;99.90
22503;DHT22;11418;48.118;9.992;2024-03-23T09:04:24;8.30;99.90
22503;DHT22;11418;48.118;9.992;2024-03-23T09:08:25;8.20;99.90
22503;DHT22;11418;48.118;9.992;2024-03-23T09:12:26;8.20;99.90
22503;DHT22;11418;48.118;9.992;2024-03-23T09:16:26;8.00;99.90
22503;DHT22;11418;48.118;9.992;2024-03-23T09:20:27;7.80;99.90
22503;DHT22;11418;48.118;9.992;2024-03-23T09:24:28;7.60;99.90
22503;DHT22;11418;48.118;9.992;2024-03-23T09:28:28;7.40;99.90
22503;DHT22;11418;48.118;9.992;2024-03-23T09:32:29;7.60;99.90
22503;DHT22;11418;48.118;9.992;2024-03-23T09:36:30;7.70;99.90
22503;DHT22;11418;48.118;9.992;2024-03-23T09:40:32;7.60;99.90
22503;DHT22;11418;48.118;9.992;2024-03-23T09:44:33;8.00;99.90
22503;DHT22;11418;48.118;9.992;2024-03-23T09:48:36;8.40;99.90
22503;DHT22;11418;48.118;9.992;2024-03-23T09:52:36;8.80;99.90
22503;DHT22;11418;48.118;9.992;2024-03-23T09:56:37;8.90;99.90
22503;DHT22;11418;48.118;9.992;2024-03-23T10:00:37;8.90;99.90
22503;DHT22;11418;48.118;9.992;2024-03-23T10:04:42;8.70;99.90
22503;DHT22;11418;48.118;9.992;2024-03-23T10:08:43;8.80;99.90
22503;DHT22;11418;48.118;9.992;2024-03-23T10:12:48;9.20;99.90
22503;DHT22;11418;48.118;9.992;2024-03-23T10:16:51;10.00;99.90
22503;DHT22;11418;48.118;9.992;2024-03-23T10:25:11;10.10;99.90
22503;DHT22;11418;48.118;9.992;2024-03-23T10:29:12;9.90;99.90
22503;DHT22;11418;48.118;9.992;2024-03-23T10:33:13;9.70;99.90
22503;DHT22;11418;48.118;9.992;2024-03-23T10:37:15;9.70;99.90
22503;DHT22;11418;48.118;9.992;2024-03-23T10:41:16;10.10;99.90
22503;DHT22;11418;48.118;9.992;2024-03-23T10:45:16;10.30;99.90
22503;DHT22;11418;48.118;9.992;2024-03-23T10:49:17;10.40;99.90
22503;DHT22;11418;48.118;9.992;2024-03-23T10:53:27;10.60;99.90
22503;DHT22;11418;48.118;9.992;2024-03-23T10:57:41;10.50;99.90
22503;DHT22;11418;48.118;9.992;2024-03-23T11:01:59;9.60;99.90
22503;DHT22;11418;48.118;9.992;2024-03-23T11:06:08;9.00;99.90
22503;DHT22;11418;48.118;9.992;2024-03-23T11:14:35;10.00;99.90
22503;DHT22;11418;48.118;9.992;2024-03-23T11:18:38;11.00;99.90
22503;DHT22;11418;48.118;9.992;2024-03-23T11:22:47;11.60;99.90
22503;DHT22;11418;48.118;9.992;2024-03-23T11:26:51;11.50;99.90
22503;DHT22;11418;48.118;9.992;2024-03-23T11:31:22;11.10;99.90
22503;DHT22;11418;48.118;9.992;2024-03-23T11:35:53;11.30;99.90
22503;DHT22;11418;48.118;9.992;2024-03-23T11:40:20;12.40;99.90
22503;DHT22;11418;48.118;9.992;2024-03-23T11:44:46;14.00;99.90
22503;DHT22;11418;48.118;9.992;2024-03-23T11:49:37;12.60;99.90
22503;DHT22;11418;48.118;9.992;2024-03-23T11:54:31;11.50;99.90
22503;DHT22;11418;48.118;9.992;2024-03-23T12:03:27;14.50;99.90
22503;DHT22;11418;48.118;9.992;2024-03-23T13:00:29;9.00;99.90
22503;DHT22;11418;48.118;9.992;2024-03-23T13:05:02;8.40;99.90
22503;DHT22;11418;48.118;9.992;2024-03-23T13:14:39;9.00;99.90
22503;DHT22;11418;48.118;9.992;2024-03-23T13:18:40;7.90;99.90
22503;DHT22;11418;48.118;9.992;2024-03-23T13:22:41;7.70;99.90
22503;DHT22;11418;48.118;9.992;2024-03-23T13:27:02;7.20;99.90
22503;DHT22;11418;48.118;9.992;2024-03-23T13:31:22;6.60;99.90
22503;DHT22;11418;48.118;9.992;2024-03-23T13:45:14;11.10;99.90
22503;DHT22;11418;48.118;9.992;2024-03-23T13:49:49;11.80;99.90
22503;DHT22;11418;48.118;9.992;2024-03-23T13:54:11;13.30;99.90
22503;DHT22;11418;48.118;9.992;2024-03-23T13:58:11;12.00;99.90
22503;DHT22;11418;48.118;9.992;2024-03-23T14:06:45;9.80;99.90
22503;DHT22;11418;48.118;9.992;2024-03-23T14:11:07;9.50;99.90
22503;DHT22;11418;48.118;9.992;2024-03-23T14:15:19;9.10;99.90
22503;DHT22;11418;48.118;9.992;2024-03-23T14:19:38;9.20;99.90
22503;DHT22;11418;48.118;9.992;2024-03-23T14:23:53;10.50;99.90
22503;DHT22;11418;48.118;9.992;2024-03-23T14:28:08;14.00;99.90
22503;DHT22;11418;48.118;9.992;2024-03-23T14:32:23;13.20;99.90
22503;DHT22;11418;48.118;9.992;2024-03-23T14:36:37;13.80;99.90
22503;DHT22;11418;48.118;9.992;2024-03-23T14:41:06;12.70;99.90
22503;DHT22;11418;48.118;9.992;2024-03-23T14:45:15;12.50;99.90
22503;DHT22;11418;48.118;9.992;2024-03-23T14:49:19;11.80;99.90
22503;DHT22;11418;48.118;9.992;2024-03-23T14:53:58;10.30;99.90
22503;DHT22;11418;48.118;9.992;2024-03-23T14:58:36;9.70;99.90
22503;DHT22;11418;48.118;9.992;2024-03-23T15:02:48;9.60;99.90
22503;DHT22;11418;48.118;9.992;2024-03-23T15:06:55;10.50;99.90
22503;DHT22;11418;48.118;9.992;2024-03-23T15:11:06;12.00;99.90
22503;DHT22;11418;48.118;9.992;2024-03-23T15:15:24;12.10;99.90
22503;DHT22;11418;48.118;9.992;2024-03-23T15:19:27;10.70;99.90
22503;DHT22;11418;48.118;9.992;2024-03-23T15:23:32;9.90;99.90
22503;DHT22;11418;48.118;9.992;2024-03-23T15:27:39;9.50;99.90
22503;DHT22;11418;48.118;9.992;2024-03-23T15:32:00;9.10;99.90
22503;DHT22;11418;48.118;9.992;2024-03-23T15:36:09;9.00;99.90
22503;DHT22;11418;48.118;9.992;2024-03-23T15:40:21;8.90;99.90
22503;DHT22;11418;48.118;9.992;2024-03-23T15:44:29;8.70;99.90
22503;DHT22;11418;48.118;9.992;2024-03-23T15:48:31;8.40;99.90
22503;DHT22;11418;48.118;9.992;2024-03-23T15:52:32;8.40;99.90
22503;DHT22;11418;48.118;9.992;2024-03-23T15:56:33;8.90;99.90
22503;DHT22;11418;48.118;9.992;2024-03-23T16:00:41;9.80;99.90
22503;DHT22;11418;48.118;9.992;2024-03-23T16:04:58;11.30;99.90
22503;DHT22;11418;48.118;9.992;2024-03-23T16:09:03;9.70;99.90
22503;DHT22;11418;48.118;9.992;2024-03-23T16:13:13;9.10;99.90
22503;DHT22;11418;48.118;9.992;2024-03-23T16:17:14;8.40;99.90
22503;DHT22;11418;48.118;9.992;2024-03-23T16:21:14;8.00;99.90
22503;DHT22;11418;48.118;9.992;2024-03-23T16:25:19;7.60;99.90
22503;DHT22;11418;48.118;9.992;2024-03-23T16:29:24;7.40;99.90
22503;DHT22;11418;48.118;9.992;2024-03-23T16:33:25;6.90;99.90
22503;DHT22;11418;48.118;9.992;2024-03-23T16:37:26;7.60;99.90
22503;DHT22;11418;48.118;9.992;2024-03-23T16:41:36;7.40;99.90
22503;DHT22;11418;48.118;9.992;2024-03-23T16:46:08;6.80;99.90
22503;DHT22;11418;48.118;9.992;2024-03-23T16:50:17;6.50;99.90
22503;DHT22;11418;48.118;9.992;2024-03-23T16:54:27;6.20;99.90
22503;DHT22;11418;48.118;9.992;2024-03-23T16:58:31;5.70;99.90
22503;DHT22;11418;48.118;9.992;2024-03-23T17:02:32;5.20;99.90
22503;DHT22;11418;48.118;9.992;2024-03-23T17:06:33;5.00;99.90
22503;DHT22;11418;48.118;9.992;2024-03-23T17:10:37;5.00;99.90
22503;DHT22;11418;48.118;9.992;2024-03-23T17:14:40;5.00;99.90
22503;DHT22;11418;48.118;9.992;2024-03-23T17:18:41;5.00;99.90
22503;DHT22;11418;48.118;9.992;2024-03-23T17:22:42;5.00;99.90
22503;DHT22;11418;48.118;9.992;2024-03-23T17:26:48;4.90;99.90
22503;DHT22;11418;48.118;9.992;2024-03-23T17:30:55;5.00;99.90
22503;DHT22;11418;48.118;9.992;2024-03-23T17:34:58;4.60;99.90
22503;DHT22;11418;48.118;9.992;2024-03-23T17:39:01;4.50;99.90
22503;DHT22;11418;48.118;9.992;2024-03-23T17:43:32;4.50;99.90
22503;DHT22;11418;48.118;9.992;2024-03-23T17:47:42;4.20;99.90
22503;DHT22;11418;48.118;9.992;2024-03-23T17:51:43;4.20;99.90
22503;DHT22;11418;48.118;9.992;2024-03-23T17:55:46;4.20;99.90
22503;DHT22;11418;48.118;9.992;2024-03-23T17:59:47;4.10;99.90
22503;DHT22;11418;48.118;9.992;2024-03-23T18:04:14;4.10;99.90
22503;DHT22;11418;48.118;9.992;2024-03-23T18:08:41;4.10;99.90
22503;DHT22;11418;48.118;9.992;2024-03-23T18:17:11;4.00;99.90
22503;DHT22;11418;48.118;9.992;2024-03-23T18:21:44;4.10;99.90
22503;DHT22;11418;48.118;9.992;2024-03-23T18:26:00;4.20;99.90
22503;DHT22;11418;48.118;9.992;2024-03-23T18:30:15;4.20;99.90
22503;DHT22;11418;48.118;9.992;2024-03-23T18:34:16;4.50;99.90
22503;DHT22;11418;48.118;9.992;2024-03-23T18:38:18;4.50;99.90
22503;DHT22;11418;48.118;9.992;2024-03-23T18:42:42;4.50;99.90
22503;DHT22;11418;48.118;9.992;2024-03-23T18:46:51;4.50;99.90
22503;DHT22;11418;48.118;9.992;2024-03-23T18:51:24;4.40;99.90
22503;DHT22;11418;48.118;9.992;2024-03-23T18:55:56;4.40;99.90
22503;DHT22;11418;48.118;9.992;2024-03-23T19:00:31;4.50;99.90
22503;DHT22;11418;48.118;9.992;2024-03-23T19:04:40;4.40;99.90
22503;DHT22;11418;48.118;9.992;2024-03-23T19:08:53;4.30;99.90
22503;DHT22;11418;48.118;9.992;2024-03-23T19:13:02;4.20;99.90
22503;DHT22;11418;48.118;9.992;2024-03-23T19:17:06;4.50;99.90
22503;DHT22;11418;48.118;9.992;2024-03-23T19:21:07;4.10;99.90
22503;DHT22;11418;48.118;9.992;2024-03-23T19:25:08;4.20;99.90
22503;DHT22;11418;48.118;9.992;2024-03-23T19:29:19;4.20;99.90
22503;DHT22;11418;48.118;9.992;2024-03-23T19:33:32;4.20;99.90
22503;DHT22;11418;48.118;9.992;2024-03-23T19:37:39;4.20;99.90
22503;DHT22;11418;48.118;9.992;2024-03-23T19:41:43;4.20;99.90
22503;DHT22;11418;48.118;9.992;2024-03-23T19:45:45;4.30;99.90
22503;DHT22;11418;48.118;9.992;2024-03-23T19:50:15;4.10;99.90
22503;DHT22;11418;48.118;9.992;2024-03-23T19:54:16;4.20;99.90
22503;DHT22;11418;48.118;9.992;2024-03-23T20:03:13;4.00;99.90
22503;DHT22;11418;48.118;9.992;2024-03-23T20:07:19;3.80;99.90
22503;DHT22;11418;48.118;9.992;2024-03-23T20:12:06;3.80;99.90
22503;DHT22;11418;48.118;9.992;2024-03-23T20:16:05;3.70;99.90
22503;DHT22;11418;48.118;9.992;2024-03-23T20:20:17;3.70;99.90
22503;DHT22;11418;48.118;9.992;2024-03-23T20:24:25;3.50;99.90
22503;DHT22;11418;48.118;9.992;2024-03-23T20:28:30;3.40;99.90
22503;DHT22;11418;48.118;9.992;2024-03-23T20:32:46;3.40;99.90
22503;DHT22;11418;48.118;9.992;2024-03-23T20:36:49;3.30;99.90
22503;DHT22;11418;48.118;9.992;2024-03-23T20:41:03;3.30;99.90
22503;DHT22;11418;48.118;9.992;2024-03-23T20:50:42;3.30;99.90
22503;DHT22;11418;48.118;9.992;2024-03-23T20:59:20;3.60;99.90
22503;DHT22;11418;48.118;9.992;2024-03-23T21:03:21;3.70;99.90
22503;DHT22;11418;48.118;9.992;2024-03-23T21:07:22;3.80;99.90
22503;DHT22;11418;48.118;9.992;2024-03-23T21:11:29;3.70;99.90
22503;DHT22;11418;48.118;9.992;2024-03-23T21:15:33;3.80;99.90
22503;DHT22;11418;48.118;9.992;2024-03-23T21:19:40;3.90;99.90
22503;DHT22;11418;48.118;9.992;2024-03-23T21:23:41;3.70;99.90
22503;DHT22;11418;48.118;9.992;2024-03-23T21:28:02;3.80;99.90
22503;DHT22;11418;48.118;9.992;2024-03-23T21:32:45;3.80;99.90
22503;DHT22;11418;48.118;9.992;2024-03-23T21:37:43;3.60;99.90
22503;DHT22;11418;48.118;9.992;2024-03-23T21:41:57;3.50;99.90
22503;DHT22;11418;48.118;9.992;2024-03-23T21:51:15;3.20;99.90
22503;DHT22;11418;48.118;9.992;2024-03-23T21:59:32;3.10;99.90
22503;DHT22;11418;48.118;9.992;2024-03-23T22:22:29;3.50;99.90
22503;DHT22;11418;48.118;9.992;2024-03-23T22:26:36;3.70;99.90
22503;DHT22;11418;48.118;9.992;2024-03-23T22:30:52;3.70;99.90
22503;DHT22;11418;48.118;9.992;2024-03-23T22:48:34;3.50;99.90
22503;DHT22;11418;48.118;9.992;2024-03-23T22:52:37;3.60;99.90
22503;DHT22;11418;48.118;9.992;2024-03-23T22:56:46;3.50;99.90
22503;DHT22;11418;48.118;9.992;2024-03-23T23:00:54;3.60;99.90
22503;DHT22;11418;48.118;9.992;2024-03-23T23:05:00;3.50;99.90
22503;DHT22;11418;48.118;9.992;2024-03-23T23:09:13;3.50;99.90
22503;DHT22;11418;48.118;9.992;2024-03-23T23:17:48;3.70;99.90
22503;DHT22;11418;48.118;9.992;2024-03-23T23:21:54;3.60;99.90
22503;DHT22;11418;48.118;9.992;2024-03-23T23:25:58;3.50;99.90
22503;DHT22;11418;48.118;9.992;2024-03-23T23:30:13;3.60;99.90
22503;DHT22;11418;48.118;9.992;2024-03-23T23:34:20;3.40;99.90
22503;DHT22;11418;48.118;9.992;2024-03-23T23:38:26;3.40;99.90
22503;DHT22;11418;48.118;9.992;2024-03-23T23:42:31;3.50;99.90
22503;DHT22;11418;48.118;9.992;2024-03-23T23:46:52;3.60;99.90
22503;DHT22;11418;48.118;9.992;2024-03-23T23:50:53;3.50;99.90
22503;DHT22;11418;48.118;9.992;2024-03-23T23:54:57;3.50;99.90
22503;DHT22;11418;48.118;9.992;2024-03-23T23:59:09;3.60;99.90
